Delta Billie — WDE8059 — position and weather

sailwx.info

Track history (hours):
 
Tides and Currents Weather Stations Pressure Air Temp Water Temp Dewpoint Dewpoint Depression Visibility Wind Speed Wind Dir Waves Ship Positions

Delta Billie

Owner: Baydelta Maritime, San Francicso, CA. More information available from US FCC via Universal Licensing System and Coast Guard Vessel Documentation Center.

Last reported at 2016-Jun-25 02:17 UTC. Time now 2016-Jun-25 12:31 UTC.
Position N 38°02' W 122°08'.

Length 30 m; draft 5.5 m.

Type: Towing. MMSI: 367401030.

Date/timePositionNaut miles runAvg speedWind from/ knotsBaromVisibWave heightAir tempDewpointWater temp
2016-Jun-25 02:17N 38°02' W 122°08'1 0.7
2016-Jun-25 01:33N 38°02' W 122°08'2 2.4
2016-Jun-25 00:34N 38°03' W 122°11'1111.1
2016-Jun-24 23:33N 37°60' W 122°24'1110.2
2016-Jun-24 22:25N 37°49' W 122°21'2 2.7
2016-Jun-24 21:34N 37°48' W 122°19'2 2.1
2016-Jun-24 20:33N 37°48' W 122°21'2 2.1
2016-Jun-24 19:30N 37°48' W 122°24'11 5.4
2016-Jun-24 17:24N 37°59' W 122°25'910.6
2016-Jun-24 16:33N 38°04' W 122°15'0 0.1
2016-Jun-24 15:32N 38°03' W 122°15'0 0.0
2016-Jun-24 14:30N 38°03' W 122°15'0 0.0
2016-Jun-24 13:33N 38°03' W 122°15'5 5.2
2016-Jun-24 12:33N 38°02' W 122°08'0 0.3
2016-Jun-24 11:24N 38°02' W 122°08'0 0.0
2016-Jun-23 16:32N 38°03' W 122°08'0 0.0
2016-Jun-23 15:23N 38°03' W 122°08'0 0.0
2016-Jun-23 14:33N 38°03' W 122°08'0 0.0
2016-Jun-23 10:24N 38°03' W 122°08'0 0.0
2016-Jun-23 09:18N 38°03' W 122°08'0 0.0
2016-Jun-23 08:20N 38°03' W 122°08'0 0.0
2016-Jun-23 07:30N 38°03' W 122°08'1 0.1
2016-Jun-23 00:07N 38°02' W 122°07'0 0.1
2016-Jun-22 21:19N 38°02' W 122°08'3 3.3
2016-Jun-22 20:32N 38°03' W 122°11'9 7.6
2016-Jun-22 19:19N 38°02' W 122°22'9 9.0
2016-Jun-22 18:20N 37°53' W 122°26'6 8.3
2016-Jun-22 17:33N 37°48' W 122°22'1 1.1
2016-Jun-22 16:33N 37°47' W 122°22'2 2.2
2016-Jun-22 15:33N 37°48' W 122°24'0 0.0
2016-Jun-22 14:34N 37°48' W 122°24'0 0.0
2016-Jun-22 13:34N 37°48' W 122°24'0 0.0
2016-Jun-22 12:34N 37°48' W 122°24'0 0.0
2016-Jun-22 11:34N 37°48' W 122°24'0 0.0
2016-Jun-22 10:34N 37°48' W 122°24'0 0.0
2016-Jun-22 09:33N 37°48' W 122°24'0 0.4
2016-Jun-22 08:33N 37°49' W 122°24'1 0.6
2016-Jun-22 06:34N 37°50' W 122°24'1 1.5
2016-Jun-22 05:33N 37°48' W 122°24'0 0.0
2016-Jun-22 04:33N 37°48' W 122°24'0 0.0
2016-Jun-22 03:25N 37°48' W 122°24'4 5.3
2016-Jun-22 02:33N 37°48' W 122°18'0 0.4
2016-Jun-22 01:33N 37°48' W 122°19'2 1.6
2016-Jun-22 00:33N 37°48' W 122°21'2 2.0
2016-Jun-21 23:33N 37°48' W 122°18'3 2.5
2016-Jun-21 22:23N 37°48' W 122°22'2 2.0
2016-Jun-21 21:34N 37°50' W 122°23'11 7.4
2016-Jun-21 20:08N 38°00' W 122°24'5 8.1
2016-Jun-21 19:32N 38°03' W 122°19'9 1.4
2016-Jun-21 13:08N 38°03' W 122°08'0 0.0
2016-Jun-21 12:32N 38°03' W 122°08'0 0.0
2016-Jun-21 11:34N 38°03' W 122°08'0 0.0
2016-Jun-21 10:33N 38°03' W 122°08'1 0.6
2016-Jun-21 09:34N 38°02' W 122°08'3 2.5
2016-Jun-21 08:33N 38°03' W 122°11'5 5.5
2016-Jun-21 07:33N 38°03' W 122°18'10 2.3
2016-Jun-21 03:28N 37°55' W 122°25'8 8.3
2016-Jun-21 02:32N 37°48' W 122°21'3 2.8
2016-Jun-21 01:33N 37°48' W 122°17'4 3.3
2016-Jun-21 00:23N 37°48' W 122°22'2 2.6
2016-Jun-20 23:34N 37°50' W 122°24'10 9.7
2016-Jun-20 22:31N 37°60' W 122°25'9 9.3
2016-Jun-20 21:33N 38°04' W 122°15'0 0.1
2016-Jun-20 17:31N 38°04' W 122°15'6 5.4
2016-Jun-20 16:19N 38°02' W 122°22'10 9.2
2016-Jun-20 15:17N 37°53' W 122°25'4 5.6
2016-Jun-20 14:34N 37°49' W 122°28'3 2.6
2016-Jun-20 13:33N 37°49' W 122°31'12 8.2
2016-Jun-20 12:05N 38°00' W 122°25'611.0
2016-Jun-20 11:33N 38°03' W 122°18'3 2.9
2016-Jun-20 10:33N 38°03' W 122°15'2 1.9
2016-Jun-20 09:32N 38°03' W 122°12'1 0.8
2016-Jun-20 08:18N 38°03' W 122°11'16 8.8
2016-Jun-20 06:28N 37°51' W 122°24'3 3.2
2016-Jun-20 05:33N 37°48' W 122°24'0 0.0
2016-Jun-20 04:32N 37°48' W 122°24'0 0.0
2016-Jun-20 02:12N 37°48' W 122°24'3 5.3
2016-Jun-20 01:33N 37°48' W 122°20'0 0.2
2016-Jun-20 00:33N 37°48' W 122°19'0 0.2
2016-Jun-19 23:33N 37°48' W 122°20'1 0.6
2016-Jun-19 22:33N 37°48' W 122°19'4 3.7
2016-Jun-19 21:27N 37°48' W 122°24'0 0.0
2016-Jun-19 20:34N 37°48' W 122°24'0 0.0
2016-Jun-19 16:03N 37°48' W 122°24'0 0.0
2016-Jun-19 15:32N 37°48' W 122°24'0 0.0
2016-Jun-19 14:32N 37°48' W 122°24'5 4.7
2016-Jun-19 13:33N 37°48' W 122°18'1 0.7
2016-Jun-19 12:33N 37°48' W 122°19'2 1.7
2016-Jun-19 11:34N 37°48' W 122°21'2 1.0
2016-Jun-19 09:13N 37°48' W 122°24'0 0.0
2016-Jun-19 08:33N 37°48' W 122°24'0 0.0
2016-Jun-19 07:33N 37°48' W 122°24'0 0.0
2016-Jun-19 06:33N 37°48' W 122°24'0 0.0
2016-Jun-19 05:32N 37°48' W 122°24'0 0.0
2016-Jun-19 04:24N 37°48' W 122°24'0 0.0
2016-Jun-19 03:31N 37°48' W 122°24'0 0.0
2016-Jun-19 02:24N 37°48' W 122°24'0 0.0
2016-Jun-19 01:33N 37°48' W 122°24'0 0.1
2016-Jun-19 00:32N 37°48' W 122°24'4 4.0
2016-Jun-18 23:34N 37°48' W 122°19'4 0.5
2016-Jun-18 16:06N 37°48' W 122°24'0 0.0
2016-Jun-18 15:29N 37°48' W 122°24'0 0.4
2016-Jun-18 14:33N 37°48' W 122°24'4 3.9
2016-Jun-18 13:34N 37°48' W 122°19'3 2.5
2016-Jun-18 12:34N 37°48' W 122°22'2 1.7
2016-Jun-18 11:34N 37°48' W 122°24'0 0.0
2016-Jun-18 10:33N 37°48' W 122°24'0 0.0
2016-Jun-18 09:19N 37°48' W 122°24'0 0.0
2016-Jun-18 08:34N 37°48' W 122°24'0 0.0
2016-Jun-18 07:33N 37°48' W 122°24'0 0.0
2016-Jun-18 06:33N 37°48' W 122°24'0 0.0
2016-Jun-18 05:33N 37°48' W 122°24'0 0.1
2016-Jun-18 03:30N 37°48' W 122°24'3 3.6
2016-Jun-18 02:33N 37°48' W 122°19'4 1.8
2016-Jun-18 00:31N 37°48' W 122°24'2 1.9
2016-Jun-17 23:34N 37°47' W 122°22'0 0.4
2016-Jun-17 22:33N 37°47' W 122°22'7 6.7
2016-Jun-17 21:33N 37°48' W 122°30'4 3.7
2016-Jun-17 20:33N 37°51' W 122°27'9 2.3
2016-Jun-17 16:30N 37°60' W 122°25'12 0.6
2016-Jun-16 18:26N 38°02' W 122°09'4 1.2
2016-Jun-16 15:24N 38°04' W 122°13'910.0
2016-Jun-16 14:28N 38°00' W 122°24'5 0.9
2016-Jun-16 09:05N 37°55' W 122°25'610.8
2016-Jun-16 08:33N 38°01' W 122°24'9 1.4
2016-Jun-16 02:26N 38°04' W 122°13'18 9.5
2016-Jun-16 00:33N 37°50' W 122°28'3 3.2
2016-Jun-15 23:34N 37°47' W 122°30'5 4.6
2016-Jun-15 22:33N 37°50' W 122°25'7 6.7
2016-Jun-15 21:33N 37°44' W 122°21'2 1.7
2016-Jun-15 20:33N 37°46' W 122°21'3 1.5
2016-Jun-15 18:24N 37°48' W 122°24'5 2.4
2016-Jun-15 16:27N 37°53' W 122°25'0 0.2
2016-Jun-15 15:33N 37°53' W 122°25'1 0.3
2016-Jun-15 13:29N 37°52' W 122°25'6 6.6
2016-Jun-15 12:34N 37°49' W 122°32'4 3.8
2016-Jun-15 11:33N 37°49' W 122°27'2 2.4
2016-Jun-15 10:34N 37°48' W 122°24'0 0.0
2016-Jun-15 09:33N 37°48' W 122°24'0 0.0
2016-Jun-15 08:33N 37°48' W 122°24'0 0.0
2016-Jun-15 07:34N 37°48' W 122°24'0 0.0
2016-Jun-15 06:34N 37°48' W 122°24'0 0.0
2016-Jun-15 05:34N 37°48' W 122°24'0 0.0
2016-Jun-15 04:34N 37°48' W 122°24'  
Track history (hours):
 
Tides and Currents Weather Stations Pressure Air Temp Water Temp Dewpoint Dewpoint Depression Visibility Wind Speed Wind Dir Waves Ship Positions

Delta Billie

Owner: Baydelta Maritime, San Francicso, CA. More information available from US FCC via Universal Licensing System and Coast Guard Vessel Documentation Center.

Last reported at 2016-Jun-25 02:17 UTC. Time now 2016-Jun-25 12:31 UTC.
Position N 38°02' W 122°08'.

Length 30 m; draft 5.5 m.

Type: Towing. MMSI: 367401030.

Date/timePositionNaut miles runAvg speedWind from/ knotsBaromVisibWave heightAir tempDewpointWater temp
2016-Jun-25 02:17N 38°02' W 122°08'1 0.7
2016-Jun-25 01:33N 38°02' W 122°08'2 2.4
2016-Jun-25 00:34N 38°03' W 122°11'1111.1
2016-Jun-24 23:33N 37°60' W 122°24'1110.2
2016-Jun-24 22:25N 37°49' W 122°21'2 2.7
2016-Jun-24 21:34N 37°48' W 122°19'2 2.1
2016-Jun-24 20:33N 37°48' W 122°21'2 2.1
2016-Jun-24 19:30N 37°48' W 122°24'11 5.4
2016-Jun-24 17:24N 37°59' W 122°25'910.6
2016-Jun-24 16:33N 38°04' W 122°15'0 0.1
2016-Jun-24 15:32N 38°03' W 122°15'0 0.0
2016-Jun-24 14:30N 38°03' W 122°15'0 0.0
2016-Jun-24 13:33N 38°03' W 122°15'5 5.2
2016-Jun-24 12:33N 38°02' W 122°08'0 0.3
2016-Jun-24 11:24N 38°02' W 122°08'0 0.0
2016-Jun-23 16:32N 38°03' W 122°08'0 0.0
2016-Jun-23 15:23N 38°03' W 122°08'0 0.0
2016-Jun-23 14:33N 38°03' W 122°08'0 0.0
2016-Jun-23 10:24N 38°03' W 122°08'0 0.0
2016-Jun-23 09:18N 38°03' W 122°08'0 0.0
2016-Jun-23 08:20N 38°03' W 122°08'0 0.0
2016-Jun-23 07:30N 38°03' W 122°08'1 0.1
2016-Jun-23 00:07N 38°02' W 122°07'0 0.1
2016-Jun-22 21:19N 38°02' W 122°08'3 3.3
2016-Jun-22 20:32N 38°03' W 122°11'9 7.6
2016-Jun-22 19:19N 38°02' W 122°22'9 9.0
2016-Jun-22 18:20N 37°53' W 122°26'6 8.3
2016-Jun-22 17:33N 37°48' W 122°22'1 1.1
2016-Jun-22 16:33N 37°47' W 122°22'2 2.2
2016-Jun-22 15:33N 37°48' W 122°24'0 0.0
2016-Jun-22 14:34N 37°48' W 122°24'0 0.0
2016-Jun-22 13:34N 37°48' W 122°24'0 0.0
2016-Jun-22 12:34N 37°48' W 122°24'0 0.0
2016-Jun-22 11:34N 37°48' W 122°24'0 0.0
2016-Jun-22 10:34N 37°48' W 122°24'0 0.0
2016-Jun-22 09:33N 37°48' W 122°24'0 0.4
2016-Jun-22 08:33N 37°49' W 122°24'1 0.6
2016-Jun-22 06:34N 37°50' W 122°24'1 1.5
2016-Jun-22 05:33N 37°48' W 122°24'0 0.0
2016-Jun-22 04:33N 37°48' W 122°24'0 0.0
2016-Jun-22 03:25N 37°48' W 122°24'4 5.3
2016-Jun-22 02:33N 37°48' W 122°18'0 0.4
2016-Jun-22 01:33N 37°48' W 122°19'2 1.6
2016-Jun-22 00:33N 37°48' W 122°21'2 2.0
2016-Jun-21 23:33N 37°48' W 122°18'3 2.5
2016-Jun-21 22:23N 37°48' W 122°22'2 2.0
2016-Jun-21 21:34N 37°50' W 122°23'11 7.4
2016-Jun-21 20:08N 38°00' W 122°24'5 8.1
2016-Jun-21 19:32N 38°03' W 122°19'9 1.4
2016-Jun-21 13:08N 38°03' W 122°08'0 0.0
2016-Jun-21 12:32N 38°03' W 122°08'0 0.0
2016-Jun-21 11:34N 38°03' W 122°08'0 0.0
2016-Jun-21 10:33N 38°03' W 122°08'1 0.6
2016-Jun-21 09:34N 38°02' W 122°08'3 2.5
2016-Jun-21 08:33N 38°03' W 122°11'5 5.5
2016-Jun-21 07:33N 38°03' W 122°18'10 2.3
2016-Jun-21 03:28N 37°55' W 122°25'8 8.3
2016-Jun-21 02:32N 37°48' W 122°21'3 2.8
2016-Jun-21 01:33N 37°48' W 122°17'4 3.3
2016-Jun-21 00:23N 37°48' W 122°22'2 2.6
2016-Jun-20 23:34N 37°50' W 122°24'10 9.7
2016-Jun-20 22:31N 37°60' W 122°25'9 9.3
2016-Jun-20 21:33N 38°04' W 122°15'0 0.1
2016-Jun-20 17:31N 38°04' W 122°15'6 5.4
2016-Jun-20 16:19N 38°02' W 122°22'10 9.2
2016-Jun-20 15:17N 37°53' W 122°25'4 5.6
2016-Jun-20 14:34N 37°49' W 122°28'3 2.6
2016-Jun-20 13:33N 37°49' W 122°31'12 8.2
2016-Jun-20 12:05N 38°00' W 122°25'611.0
2016-Jun-20 11:33N 38°03' W 122°18'3 2.9
2016-Jun-20 10:33N 38°03' W 122°15'2 1.9
2016-Jun-20 09:32N 38°03' W 122°12'1 0.8
2016-Jun-20 08:18N 38°03' W 122°11'16 8.8
2016-Jun-20 06:28N 37°51' W 122°24'3 3.2
2016-Jun-20 05:33N 37°48' W 122°24'0 0.0
2016-Jun-20 04:32N 37°48' W 122°24'0 0.0
2016-Jun-20 02:12N 37°48' W 122°24'3 5.3
2016-Jun-20 01:33N 37°48' W 122°20'0 0.2
2016-Jun-20 00:33N 37°48' W 122°19'0 0.2
2016-Jun-19 23:33N 37°48' W 122°20'1 0.6
2016-Jun-19 22:33N 37°48' W 122°19'4 3.7
2016-Jun-19 21:27N 37°48' W 122°24'0 0.0
2016-Jun-19 20:34N 37°48' W 122°24'0 0.0
2016-Jun-19 16:03N 37°48' W 122°24'0 0.0
2016-Jun-19 15:32N 37°48' W 122°24'0 0.0
2016-Jun-19 14:32N 37°48' W 122°24'5 4.7
2016-Jun-19 13:33N 37°48' W 122°18'1 0.7
2016-Jun-19 12:33N 37°48' W 122°19'2 1.7
2016-Jun-19 11:34N 37°48' W 122°21'2 1.0
2016-Jun-19 09:13N 37°48' W 122°24'0 0.0
2016-Jun-19 08:33N 37°48' W 122°24'0 0.0
2016-Jun-19 07:33N 37°48' W 122°24'0 0.0
2016-Jun-19 06:33N 37°48' W 122°24'0 0.0
2016-Jun-19 05:32N 37°48' W 122°24'0 0.0
2016-Jun-19 04:24N 37°48' W 122°24'0 0.0
2016-Jun-19 03:31N 37°48' W 122°24'0 0.0
2016-Jun-19 02:24N 37°48' W 122°24'0 0.0
2016-Jun-19 01:33N 37°48' W 122°24'0 0.1
2016-Jun-19 00:32N 37°48' W 122°24'4 4.0
2016-Jun-18 23:34N 37°48' W 122°19'4 0.5
2016-Jun-18 16:06N 37°48' W 122°24'0 0.0
2016-Jun-18 15:29N 37°48' W 122°24'0 0.4
2016-Jun-18 14:33N 37°48' W 122°24'4 3.9
2016-Jun-18 13:34N 37°48' W 122°19'3 2.5
2016-Jun-18 12:34N 37°48' W 122°22'2 1.7
2016-Jun-18 11:34N 37°48' W 122°24'0 0.0
2016-Jun-18 10:33N 37°48' W 122°24'0 0.0
2016-Jun-18 09:19N 37°48' W 122°24'0 0.0
2016-Jun-18 08:34N 37°48' W 122°24'0 0.0
2016-Jun-18 07:33N 37°48' W 122°24'0 0.0
2016-Jun-18 06:33N 37°48' W 122°24'0 0.0
2016-Jun-18 05:33N 37°48' W 122°24'0 0.1
2016-Jun-18 03:30N 37°48' W 122°24'3 3.6
2016-Jun-18 02:33N 37°48' W 122°19'4 1.8
2016-Jun-18 00:31N 37°48' W 122°24'2 1.9
2016-Jun-17 23:34N 37°47' W 122°22'0 0.4
2016-Jun-17 22:33N 37°47' W 122°22'7 6.7
2016-Jun-17 21:33N 37°48' W 122°30'4 3.7
2016-Jun-17 20:33N 37°51' W 122°27'9 2.3
2016-Jun-17 16:30N 37°60' W 122°25'12 0.6
2016-Jun-16 18:26N 38°02' W 122°09'4 1.2
2016-Jun-16 15:24N 38°04' W 122°13'910.0
2016-Jun-16 14:28N 38°00' W 122°24'5 0.9
2016-Jun-16 09:05N 37°55' W 122°25'610.8
2016-Jun-16 08:33N 38°01' W 122°24'9 1.4
2016-Jun-16 02:26N 38°04' W 122°13'18 9.5
2016-Jun-16 00:33N 37°50' W 122°28'3 3.2
2016-Jun-15 23:34N 37°47' W 122°30'5 4.6
2016-Jun-15 22:33N 37°50' W 122°25'7 6.7
2016-Jun-15 21:33N 37°44' W 122°21'2 1.7
2016-Jun-15 20:33N 37°46' W 122°21'3 1.5
2016-Jun-15 18:24N 37°48' W 122°24'5 2.4
2016-Jun-15 16:27N 37°53' W 122°25'0 0.2
2016-Jun-15 15:33N 37°53' W 122°25'1 0.3
2016-Jun-15 13:29N 37°52' W 122°25'6 6.6
2016-Jun-15 12:34N 37°49' W 122°32'4 3.8
2016-Jun-15 11:33N 37°49' W 122°27'2 2.4
2016-Jun-15 10:34N 37°48' W 122°24'0 0.0
2016-Jun-15 09:33N 37°48' W 122°24'0 0.0
2016-Jun-15 08:33N 37°48' W 122°24'0 0.0
2016-Jun-15 07:34N 37°48' W 122°24'0 0.0
2016-Jun-15 06:34N 37°48' W 122°24'0 0.0
2016-Jun-15 05:34N 37°48' W 122°24'0 0.0
2016-Jun-15 04:34N 37°48' W 122°24'  

Dump ship's entire track history